This is the latest recevied weather packets stored in our database for station/object n3uvr. If no packets are shown the sender has not sent any weather packets the latest 10 day(s).
| Time | Temp. | Humidity | Pressure | Rain* | Wind** | Luminosity | Snow |
|---|---|---|---|---|---|---|---|
| 1777578215 | 13.89° C | 68% | 1006.4 hPa | 0 mm | - | 239 W/m² | - |
| 1777575778 | 12.78° C | 70% | 1006.8 hPa | 0 mm | - | 294 W/m² | - |
| 1777573367 | 12.22° C | 74% | 1006.8 hPa | 0 mm | - | 160 W/m² | - |
| 1777572173 | 11.67° C | 77% | 1006.9 hPa | 0 mm | - | 188 W/m² | - |
| 1777570945 | 11.67° C | 78% | 1006.9 hPa | 0 mm | - | 79 W/m² | - |
| 1777570349 | 11.67° C | 77% | 1006.9 hPa | 0 mm | - | 104 W/m² | - |
| 1777569745 | 11.67° C | 78% | 1006.9 hPa | 0 mm | - | 84 W/m² | - |
| 1777568538 | 11.67° C | 79% | 1006.9 hPa | 0 mm | - | 250 W/m² | - |
| 1777567933 | 11.67° C | 80% | 1006.8 hPa | 0 mm | - | 158 W/m² | - |
| 1777566736 | 11.11° C | 83% | 1007.1 hPa | 0 mm | - | 134 W/m² | - |
| 1777566137 | 11.11° C | 83% | 1007.2 hPa | 0 mm | - | 211 W/m² | - |
| 1777564929 | 10.56° C | 85% | 1007.2 hPa | 0 mm | - | 139 W/m² | - |
| 1777564313 | 10.56° C | 86% | 1007.1 hPa | 0 mm | - | 137 W/m² | - |
| 1777562522 | 10.56° C | 86% | 1007.1 hPa | 0 mm | - | 65 W/m² | - |
| 1777561894 | 10.56° C | 87% | 1006.8 hPa | 0 mm | - | 81 W/m² | - |
| 1777561300 | 10° C | 88% | 1006.7 hPa | 0 mm | - | 132 W/m² | - |
| 1777560109 | 9.44° C | 88% | 1006.6 hPa | 0 mm | - | 91 W/m² | - |
| 1777558901 | 9.44° C | 87% | 1006.5 hPa | 0 mm | - | 77 W/m² | - |
| 1777557111 | 9.44° C | 86% | 1006.6 hPa | 0.25 mm | - | 93 W/m² | - |
| 1777556486 | 9.44° C | 85% | 1006.6 hPa | 0.25 mm | - | 83 W/m² | - |
| 1777555886 | 9.44° C | 85% | 1006.6 hPa | 0.25 mm | - | 98 W/m² | - |
| 1777555306 | 9.44° C | 86% | 1006.6 hPa | 0.25 mm | - | 46 W/m² | - |
| 1777554736 | 9.44° C | 85% | 1006.6 hPa | 0 mm | - | 42 W/m² | - |
| 1777553533 | 9.44° C | 86% | 1006.5 hPa | 0 mm | - | 53 W/m² | - |
| 1777552919 | 9.44° C | 85% | 1006.6 hPa | 0 mm | - | 53 W/m² | - |
* Rain latest hour (hover to see other rain measurements)
** Current wind speed in m/s (hover to see current wind gust speed)